createdAt,value
2018-03-22T00:01:32.521Z,2.19
2018-03-22T00:03:59.964Z,2.15
2018-03-22T00:06:27.400Z,2.22
2018-03-22T00:08:55.059Z,2.16
2018-03-22T00:11:22.501Z,2.11
2018-03-22T00:13:50.087Z,2.09
2018-03-22T00:16:17.572Z,2.15
2018-03-22T00:18:45.040Z,2.24
2018-03-22T00:21:12.518Z,2.28
2018-03-22T00:23:39.986Z,2.20
2018-03-22T00:26:07.654Z,2.12
2018-03-22T00:28:35.157Z,2.00
2018-03-22T00:31:03.223Z,2.10
2018-03-22T00:33:30.695Z,2.01
2018-03-22T00:35:58.211Z,2.06
2018-03-22T00:38:25.920Z,2.06
2018-03-22T00:40:53.422Z,2.19
2018-03-22T00:43:20.871Z,2.16
2018-03-22T00:45:48.315Z,2.04
2018-03-22T00:48:16.629Z,2.06
2018-03-22T00:50:44.136Z,1.99
2018-03-22T00:53:11.580Z,1.90
2018-03-22T00:55:39.033Z,1.86
2018-03-22T00:58:06.470Z,1.90
2018-03-22T01:00:34.054Z,1.70
2018-03-22T01:03:01.635Z,1.81
2018-03-22T01:05:33.090Z,1.79
2018-03-22T01:08:00.607Z,1.77
2018-03-22T01:10:28.060Z,1.67
2018-03-22T01:12:55.521Z,1.65
2018-03-22T01:15:22.975Z,1.90
2018-03-22T01:17:50.419Z,1.87
2018-03-22T01:20:17.909Z,1.93
2018-03-22T01:22:45.811Z,1.93
2018-03-22T01:25:13.499Z,1.68
2018-03-22T01:27:40.932Z,1.70
2018-03-22T01:30:21.322Z,1.77
2018-03-22T01:32:49.443Z,1.66
2018-03-22T01:35:18.002Z,1.59
2018-03-22T01:37:48.190Z,1.61
2018-03-22T01:40:16.820Z,1.71
2018-03-22T01:42:44.439Z,1.66
2018-03-22T01:45:12.899Z,1.78
2018-03-22T01:47:40.379Z,1.91
2018-03-22T01:50:07.806Z,1.74
2018-03-22T01:52:35.248Z,1.68
2018-03-22T01:55:02.674Z,1.60
2018-03-22T01:57:30.231Z,1.69
2018-03-22T01:59:57.798Z,1.74
2018-03-22T02:02:25.377Z,1.84
2018-03-22T02:04:53.031Z,1.74
2018-03-22T02:07:20.627Z,1.81
2018-03-22T02:09:48.202Z,1.73
2018-03-22T02:12:16.266Z,1.69
2018-03-22T02:14:43.734Z,1.60
2018-03-22T02:17:11.190Z,1.50
2018-03-22T02:19:38.651Z,1.50
2018-03-22T02:22:06.073Z,1.40
2018-03-22T02:24:33.528Z,1.39
2018-03-22T02:27:01.100Z,1.28
2018-03-22T02:29:28.531Z,1.12
2018-03-22T02:31:56.000Z,0.99
2018-03-22T02:34:23.492Z,0.95
2018-03-22T02:36:50.935Z,1.21
2018-03-22T02:39:18.432Z,1.33
2018-03-22T02:41:45.895Z,1.16
2018-03-22T02:44:13.334Z,1.12
2018-03-22T02:46:40.797Z,0.99
2018-03-22T02:49:08.257Z,0.73
2018-03-22T02:51:35.721Z,0.82
2018-03-22T02:54:03.178Z,0.84
2018-03-22T02:56:31.384Z,0.83
2018-03-22T02:58:58.971Z,0.87
2018-03-22T03:01:26.528Z,1.02
2018-03-22T03:03:54.129Z,0.86
2018-03-22T03:06:21.824Z,1.01
2018-03-22T03:08:49.341Z,0.95
2018-03-22T03:11:16.837Z,0.80
2018-03-22T03:13:44.307Z,0.82
2018-03-22T03:16:12.351Z,0.79
2018-03-22T03:18:39.837Z,0.69
2018-03-22T03:21:08.408Z,0.78
2018-03-22T03:23:35.945Z,0.74
2018-03-22T03:26:03.473Z,0.56
2018-03-22T03:28:31.526Z,0.64
2018-03-22T03:30:59.040Z,0.53
2018-03-22T03:33:26.496Z,0.52
2018-03-22T03:35:54.922Z,0.60
2018-03-22T03:38:22.408Z,0.62
2018-03-22T03:40:49.965Z,0.49
2018-03-22T03:43:17.527Z,0.58
2018-03-22T03:45:45.657Z,0.63
2018-03-22T03:48:13.207Z,0.65
2018-03-22T03:50:40.637Z,0.61
2018-03-22T03:53:08.084Z,0.41
2018-03-22T03:55:36.451Z,0.44
2018-03-22T03:58:03.908Z,0.55
2018-03-22T04:00:31.325Z,0.48
2018-03-22T04:02:58.775Z,0.32
2018-03-22T04:05:26.210Z,0.46
2018-03-22T04:07:53.660Z,0.46
2018-03-22T04:10:21.206Z,0.40
2018-03-22T04:12:48.727Z,0.22
2018-03-22T04:15:16.269Z,0.14
2018-03-22T04:17:44.253Z,0.28
2018-03-22T04:20:11.710Z,0.26
2018-03-22T04:22:39.172Z,0.25
2018-03-22T04:25:07.185Z,0.40
2018-03-22T04:27:34.919Z,0.44
2018-03-22T04:30:02.380Z,0.38
2018-03-22T04:32:29.800Z,0.34
2018-03-22T04:34:57.324Z,0.37
2018-03-22T04:37:24.770Z,0.45
2018-03-22T04:39:52.218Z,0.48
2018-03-22T04:42:19.641Z,0.51
2018-03-22T04:44:47.146Z,0.43
2018-03-22T04:47:15.115Z,0.48
2018-03-22T04:49:42.555Z,0.47
2018-03-22T04:52:10.262Z,0.53
2018-03-22T04:54:37.890Z,0.50
2018-03-22T04:57:05.366Z,0.22
2018-03-22T04:59:32.933Z,0.27
2018-03-22T05:02:00.554Z,0.47
2018-03-22T05:04:27.984Z,0.51
2018-03-22T05:06:55.459Z,0.26
2018-03-22T05:09:22.869Z,0.33
2018-03-22T05:11:50.374Z,0.25
2018-03-22T05:14:17.816Z,0.26
2018-03-22T05:16:45.273Z,0.33
2018-03-22T05:19:12.735Z,0.28
2018-03-22T05:21:40.246Z,0.29
2018-03-22T05:24:07.709Z,0.38
2018-03-22T05:26:35.160Z,0.40
2018-03-22T05:29:02.994Z,0.25
2018-03-22T05:31:30.413Z,0.24
2018-03-22T05:33:57.861Z,0.31
2018-03-22T05:36:25.283Z,0.15
2018-03-22T05:38:52.720Z,0.35
2018-03-22T05:41:20.145Z,0.59
2018-03-22T05:43:47.621Z,0.71
2018-03-22T05:46:15.040Z,0.64
2018-03-22T05:48:42.557Z,0.78
2018-03-22T05:51:10.042Z,0.79
2018-03-22T05:53:37.551Z,1.05
2018-03-22T05:56:05.005Z,1.47
2018-03-22T05:58:32.472Z,1.75
2018-03-22T06:00:59.957Z,1.87
2018-03-22T06:03:27.424Z,1.78
2018-03-22T06:05:54.889Z,1.56
2018-03-22T06:08:22.315Z,1.20
2018-03-22T06:10:49.779Z,1.48
2018-03-22T06:13:17.233Z,1.66
2018-03-22T06:15:44.690Z,1.98
2018-03-22T06:18:12.158Z,1.95
2018-03-22T06:20:39.656Z,2.11
2018-03-22T06:23:07.769Z,2.13
2018-03-22T06:25:35.267Z,2.21
2018-03-22T06:28:02.713Z,2.71
2018-03-22T06:30:30.169Z,2.93
2018-03-22T06:32:57.656Z,3.91
2018-03-22T06:35:25.092Z,5.00
2018-03-22T06:37:52.564Z,4.25
2018-03-22T06:40:20.137Z,4.29
2018-03-22T06:42:47.742Z,5.30
2018-03-22T06:45:15.446Z,6.20
2018-03-22T06:47:42.933Z,6.56
2018-03-22T06:50:10.522Z,7.12
2018-03-22T06:52:38.160Z,7.79
2018-03-22T06:55:05.696Z,6.59
2018-03-22T06:57:33.153Z,5.62
2018-03-22T07:00:00.582Z,4.86
2018-03-22T07:02:28.112Z,4.56
2018-03-22T07:04:55.557Z,4.58
2018-03-22T07:07:23.013Z,4.04
2018-03-22T07:09:50.455Z,4.12
2018-03-22T07:12:17.892Z,4.09
2018-03-22T07:14:45.385Z,3.81
2018-03-22T07:17:12.829Z,3.73
2018-03-22T07:19:40.344Z,3.79
2018-03-22T07:22:07.928Z,4.08
2018-03-22T07:24:35.462Z,3.99
2018-03-22T07:27:02.907Z,3.93
2018-03-22T07:29:30.337Z,3.66
2018-03-22T07:31:57.824Z,3.97
2018-03-22T07:34:25.261Z,4.11
2018-03-22T07:36:53.046Z,4.25
2018-03-22T07:39:20.469Z,4.53
2018-03-22T07:41:48.019Z,4.77
2018-03-22T07:47:16.691Z,5.03
2018-03-22T07:49:44.134Z,4.78
2018-03-22T07:52:11.582Z,4.87
2018-03-22T07:54:39.064Z,4.78
2018-03-22T07:57:06.501Z,5.05
2018-03-22T07:59:33.982Z,5.06
2018-03-22T08:02:01.468Z,5.09
2018-03-22T08:04:28.932Z,4.72
2018-03-22T08:06:56.393Z,4.96
2018-03-22T08:09:23.858Z,5.41
2018-03-22T08:11:51.336Z,5.55
2018-03-22T08:14:18.809Z,5.59
2018-03-22T08:16:46.258Z,5.40
2018-03-22T08:19:13.731Z,5.22
2018-03-22T08:21:41.200Z,5.71
2018-03-22T08:24:08.633Z,6.10
2018-03-22T08:26:36.083Z,6.53
2018-03-22T08:29:03.540Z,6.33
2018-03-22T08:31:31.042Z,6.14
2018-03-22T08:33:58.441Z,6.01
2018-03-22T08:36:25.908Z,5.75
2018-03-22T08:38:53.404Z,5.34
2018-03-22T08:41:21.074Z,5.05
2018-03-22T08:43:48.539Z,4.82
2018-03-22T08:46:15.980Z,5.12
2018-03-22T08:48:43.437Z,5.05
2018-03-22T08:51:10.958Z,5.38
2018-03-22T08:53:38.440Z,5.27
2018-03-22T08:56:05.873Z,5.68
2018-03-22T08:58:33.378Z,5.65
2018-03-22T09:01:00.806Z,5.46
2018-03-22T09:03:28.268Z,5.70
2018-03-22T09:05:55.704Z,5.67
2018-03-22T09:08:23.135Z,5.55
2018-03-22T09:10:50.655Z,5.52
2018-03-22T09:13:18.076Z,5.56
2018-03-22T09:15:45.698Z,5.82
2018-03-22T09:18:13.146Z,5.81
2018-03-22T09:20:41.061Z,5.93
2018-03-22T09:23:08.669Z,6.41
2018-03-22T09:25:36.130Z,7.65
2018-03-22T09:28:03.591Z,8.14
2018-03-22T09:30:31.187Z,8.54
2018-03-22T09:32:58.673Z,8.73
2018-03-22T09:35:26.150Z,8.80
2018-03-22T09:37:53.638Z,9.17
2018-03-22T09:40:21.736Z,9.47
2018-03-22T09:42:49.255Z,8.69
2018-03-22T09:45:17.027Z,8.47
2018-03-22T09:47:44.536Z,8.38
2018-03-22T09:50:12.002Z,8.82
2018-03-22T09:52:39.416Z,9.15
2018-03-22T09:55:06.884Z,8.59
2018-03-22T09:57:34.377Z,8.02
2018-03-22T10:00:01.858Z,7.60
2018-03-22T10:02:29.313Z,7.73
2018-03-22T10:04:56.759Z,7.22
2018-03-22T10:07:24.189Z,7.29
2018-03-22T10:09:51.642Z,7.57
2018-03-22T10:12:19.068Z,7.69
2018-03-22T10:14:46.556Z,7.57
2018-03-22T10:17:14.033Z,7.67
2018-03-22T10:19:41.528Z,8.22
2018-03-22T10:22:08.964Z,8.28
2018-03-22T10:24:36.520Z,8.52
2018-03-22T10:27:04.097Z,8.78
2018-03-22T10:29:32.915Z,8.47
2018-03-22T10:32:00.349Z,8.02
2018-03-22T10:34:27.797Z,7.63
2018-03-22T10:36:55.255Z,7.82
2018-03-22T10:39:22.760Z,8.31
2018-03-22T10:41:50.276Z,7.87
2018-03-22T10:44:17.754Z,8.33
2018-03-22T10:46:45.242Z,8.40
2018-03-22T10:49:12.736Z,8.88
2018-03-22T10:51:40.168Z,8.72
2018-03-22T10:54:07.661Z,8.96
2018-03-22T10:56:35.100Z,9.31
2018-03-22T10:59:02.910Z,10.29
2018-03-22T11:01:35.890Z,11.03
2018-03-22T11:04:07.499Z,10.81
2018-03-22T11:06:35.228Z,10.28
2018-03-22T11:09:02.702Z,10.71
2018-03-22T11:11:30.122Z,11.29
2018-03-22T11:13:57.584Z,10.80
2018-03-22T11:16:25.054Z,10.75
2018-03-22T11:18:52.470Z,9.84
2018-03-22T11:21:19.935Z,9.94
2018-03-22T11:23:47.367Z,9.87
2018-03-22T11:26:14.902Z,9.94
2018-03-22T11:28:42.328Z,9.85
2018-03-22T11:31:09.799Z,10.25
2018-03-22T11:33:37.316Z,10.11
2018-03-22T11:36:04.765Z,10.40
2018-03-22T11:38:32.184Z,9.27
2018-03-22T11:40:59.653Z,8.40
2018-03-22T11:43:27.076Z,8.80
2018-03-22T11:45:54.498Z,8.69
2018-03-22T11:48:21.982Z,8.26
2018-03-22T11:50:49.534Z,8.55
2018-03-22T11:53:16.925Z,8.40
2018-03-22T11:55:44.342Z,8.26
2018-03-22T11:58:11.800Z,8.33
2018-03-22T12:00:39.230Z,8.39
2018-03-22T12:03:06.674Z,8.38
2018-03-22T12:05:34.088Z,8.21
2018-03-22T12:08:01.517Z,8.29
2018-03-22T12:10:28.963Z,8.48
2018-03-22T12:12:56.384Z,8.48
2018-03-22T12:15:23.876Z,7.93
2018-03-22T12:17:51.317Z,7.86
2018-03-22T12:20:18.908Z,8.30
2018-03-22T12:22:46.345Z,8.18
2018-03-22T12:25:13.773Z,8.01
2018-03-22T12:27:41.321Z,8.12
2018-03-22T12:30:08.748Z,7.87
2018-03-22T12:32:36.216Z,7.75
2018-03-22T12:35:03.645Z,8.08
2018-03-22T12:37:31.116Z,8.15
2018-03-22T12:39:58.552Z,7.92
2018-03-22T12:42:26.013Z,7.77
2018-03-22T12:44:53.480Z,7.97
2018-03-22T12:47:20.976Z,7.81
2018-03-22T12:49:48.401Z,8.31
2018-03-22T12:52:15.867Z,7.97
2018-03-22T12:54:43.414Z,8.01
2018-03-22T12:57:10.900Z,8.00
2018-03-22T12:59:38.482Z,8.04
2018-03-22T13:02:05.978Z,8.05
2018-03-22T13:04:33.399Z,7.80
2018-03-22T13:07:00.896Z,7.65
2018-03-22T13:09:28.355Z,7.27
2018-03-22T13:11:55.950Z,7.01
2018-03-22T13:14:23.496Z,6.57
2018-03-22T13:16:51.825Z,6.52
2018-03-22T13:19:19.475Z,6.62
2018-03-22T13:21:46.927Z,6.73
2018-03-22T13:24:14.449Z,6.82
2018-03-22T13:26:41.889Z,7.04
2018-03-22T13:29:09.422Z,6.98
2018-03-22T13:31:37.027Z,7.03
2018-03-22T13:34:04.748Z,6.75
2018-03-22T13:36:32.315Z,6.36
2018-03-22T13:39:00.008Z,6.20
2018-03-22T13:41:27.635Z,6.43
2018-03-22T13:43:55.100Z,5.97
2018-03-22T13:46:22.587Z,5.95
2018-03-22T13:48:50.043Z,6.10
2018-03-22T13:51:17.492Z,6.07
2018-03-22T13:53:45.059Z,6.29
2018-03-22T13:56:12.515Z,6.22
2018-03-22T13:58:40.578Z,6.31
2018-03-22T14:01:08.157Z,6.31
2018-03-22T14:03:35.705Z,5.92
2018-03-22T14:06:03.268Z,6.06
2018-03-22T14:08:30.752Z,6.11
2018-03-22T14:10:58.194Z,5.82
2018-03-22T14:13:25.711Z,5.60
2018-03-22T14:15:53.171Z,5.56
2018-03-22T14:18:20.638Z,5.55
2018-03-22T14:20:48.104Z,5.66
2018-03-22T14:23:15.539Z,5.61
2018-03-22T14:25:43.184Z,5.43
2018-03-22T14:28:10.647Z,5.42
2018-03-22T14:30:38.240Z,5.56
2018-03-22T14:33:05.707Z,5.70
2018-03-22T14:35:33.184Z,5.51
2018-03-22T14:38:00.658Z,5.29
2018-03-22T14:40:28.467Z,5.22
2018-03-22T14:42:56.036Z,5.13
2018-03-22T14:45:23.480Z,5.19
2018-03-22T14:47:50.959Z,5.40
2018-03-22T14:50:18.708Z,5.32
2018-03-22T14:52:46.188Z,5.31
2018-03-22T14:55:13.628Z,5.28
2018-03-22T14:57:41.122Z,5.21
2018-03-22T15:00:09.423Z,5.25
2018-03-22T15:02:36.869Z,5.23
2018-03-22T15:05:04.466Z,5.46
2018-03-22T15:07:31.986Z,5.38
2018-03-22T15:09:59.593Z,5.52
2018-03-22T15:12:27.474Z,5.49
2018-03-22T15:14:54.978Z,5.40
2018-03-22T15:17:22.496Z,5.53
2018-03-22T15:19:49.969Z,5.58
2018-03-22T15:22:17.464Z,5.60
2018-03-22T15:24:44.934Z,5.57
2018-03-22T15:27:12.375Z,5.53
2018-03-22T15:29:39.845Z,5.66
2018-03-22T15:32:07.298Z,5.74
2018-03-22T15:34:34.794Z,5.74
2018-03-22T15:37:02.308Z,5.47
2018-03-22T15:39:29.793Z,5.30
2018-03-22T15:41:57.666Z,5.24
2018-03-22T15:44:25.168Z,5.51
2018-03-22T15:46:52.657Z,5.54
2018-03-22T15:49:20.185Z,5.09
2018-03-22T15:51:47.739Z,5.17
2018-03-22T15:54:15.273Z,5.16
2018-03-22T15:56:42.837Z,5.13
2018-03-22T15:59:10.543Z,4.82
2018-03-22T16:01:38.120Z,5.04
2018-03-22T16:04:05.633Z,4.56
2018-03-22T16:06:33.209Z,4.67
2018-03-22T16:09:00.671Z,4.67
2018-03-22T16:11:28.132Z,4.77
2018-03-22T16:13:55.578Z,4.65
2018-03-22T16:16:23.034Z,4.57
2018-03-22T16:18:50.858Z,4.61
2018-03-22T16:21:18.348Z,4.53
2018-03-22T16:23:45.782Z,4.45
2018-03-22T16:26:13.242Z,4.49
2018-03-22T16:28:41.723Z,4.60
2018-03-22T16:31:09.299Z,4.74
2018-03-22T16:33:36.775Z,4.69
2018-03-22T16:36:04.298Z,4.80
2018-03-22T16:38:31.794Z,4.71
2018-03-22T16:40:59.273Z,4.78
2018-03-22T16:43:26.734Z,4.90
2018-03-22T16:45:54.192Z,4.83
2018-03-22T16:48:21.686Z,4.89
2018-03-22T16:50:49.114Z,4.99
2018-03-22T16:53:16.586Z,4.84
2018-03-22T16:55:44.117Z,4.76
2018-03-22T16:58:11.606Z,4.76
2018-03-22T17:00:39.239Z,4.83
2018-03-22T17:03:06.840Z,4.89
2018-03-22T17:05:34.381Z,4.97
2018-03-22T17:08:01.909Z,4.86
2018-03-22T17:10:29.427Z,4.87
2018-03-22T17:12:57.588Z,4.76
2018-03-22T17:15:25.217Z,4.45
2018-03-22T17:17:52.668Z,4.52
2018-03-22T17:20:20.194Z,4.48
